sensor_id;sensor_type;location;lat;lon;timestamp;P1;durP1;ratioP1;P2;durP2;ratioP2
20441;SDS011;10380;52.102;20.614;2023-02-24T00:02:11;42.10;;;22.37;;
20441;SDS011;10380;52.102;20.614;2023-02-24T00:04:40;41.37;;;22.60;;
20441;SDS011;10380;52.102;20.614;2023-02-24T00:07:08;35.60;;;21.67;;
20441;SDS011;10380;52.102;20.614;2023-02-24T00:09:38;38.97;;;22.37;;
20441;SDS011;10380;52.102;20.614;2023-02-24T00:12:13;38.07;;;22.47;;
20441;SDS011;10380;52.102;20.614;2023-02-24T00:14:42;36.10;;;22.53;;
20441;SDS011;10380;52.102;20.614;2023-02-24T00:17:11;41.93;;;23.37;;
20441;SDS011;10380;52.102;20.614;2023-02-24T00:19:43;41.67;;;23.70;;
20441;SDS011;10380;52.102;20.614;2023-02-24T00:22:11;45.40;;;24.80;;
20441;SDS011;10380;52.102;20.614;2023-02-24T00:24:39;42.13;;;23.13;;
20441;SDS011;10380;52.102;20.614;2023-02-24T00:27:16;38.23;;;23.47;;
20441;SDS011;10380;52.102;20.614;2023-02-24T00:29:43;38.57;;;23.67;;
20441;SDS011;10380;52.102;20.614;2023-02-24T00:32:12;45.63;;;23.87;;
20441;SDS011;10380;52.102;20.614;2023-02-24T00:34:40;39.37;;;24.43;;
20441;SDS011;10380;52.102;20.614;2023-02-24T00:37:10;40.73;;;23.20;;
20441;SDS011;10380;52.102;20.614;2023-02-24T00:39:41;38.00;;;22.80;;
20441;SDS011;10380;52.102;20.614;2023-02-24T00:42:09;42.10;;;24.03;;
20441;SDS011;10380;52.102;20.614;2023-02-24T00:44:38;38.80;;;23.50;;
20441;SDS011;10380;52.102;20.614;2023-02-24T00:47:07;41.80;;;24.07;;
20441;SDS011;10380;52.102;20.614;2023-02-24T00:49:36;44.77;;;25.17;;
20441;SDS011;10380;52.102;20.614;2023-02-24T00:52:12;43.93;;;25.03;;
20441;SDS011;10380;52.102;20.614;2023-02-24T00:54:41;44.23;;;25.17;;
20441;SDS011;10380;52.102;20.614;2023-02-24T00:57:09;43.60;;;25.60;;
20441;SDS011;10380;52.102;20.614;2023-02-24T00:59:37;47.73;;;25.73;;
20441;SDS011;10380;52.102;20.614;2023-02-24T01:02:04;44.87;;;25.40;;
20441;SDS011;10380;52.102;20.614;2023-02-24T01:04:39;47.67;;;25.23;;
20441;SDS011;10380;52.102;20.614;2023-02-24T01:07:07;50.93;;;26.40;;
20441;SDS011;10380;52.102;20.614;2023-02-24T01:09:37;41.70;;;25.87;;
20441;SDS011;10380;52.102;20.614;2023-02-24T01:12:07;46.83;;;26.97;;
20441;SDS011;10380;52.102;20.614;2023-02-24T01:14:49;45.23;;;25.97;;
20441;SDS011;10380;52.102;20.614;2023-02-24T01:17:18;44.87;;;25.67;;
20441;SDS011;10380;52.102;20.614;2023-02-24T01:19:46;47.27;;;26.13;;
20441;SDS011;10380;52.102;20.614;2023-02-24T01:22:16;43.90;;;25.73;;
20441;SDS011;10380;52.102;20.614;2023-02-24T01:24:44;41.13;;;25.83;;
20441;SDS011;10380;52.102;20.614;2023-02-24T01:27:12;47.33;;;25.63;;
20441;SDS011;10380;52.102;20.614;2023-02-24T01:29:43;50.50;;;27.10;;
20441;SDS011;10380;52.102;20.614;2023-02-24T01:32:14;42.67;;;24.90;;
20441;SDS011;10380;52.102;20.614;2023-02-24T01:34:44;48.37;;;27.63;;
20441;SDS011;10380;52.102;20.614;2023-02-24T01:37:12;44.63;;;27.00;;
20441;SDS011;10380;52.102;20.614;2023-02-24T01:39:43;45.07;;;27.80;;
20441;SDS011;10380;52.102;20.614;2023-02-24T01:42:14;41.83;;;26.50;;
20441;SDS011;10380;52.102;20.614;2023-02-24T01:47:18;47.57;;;26.10;;
20441;SDS011;10380;52.102;20.614;2023-02-24T01:49:49;49.60;;;28.03;;
20441;SDS011;10380;52.102;20.614;2023-02-24T01:52:23;51.57;;;26.80;;
20441;SDS011;10380;52.102;20.614;2023-02-24T01:54:58;46.37;;;25.83;;
20441;SDS011;10380;52.102;20.614;2023-02-24T01:57:30;45.17;;;26.37;;
20441;SDS011;10380;52.102;20.614;2023-02-24T02:00:05;49.67;;;27.53;;
20441;SDS011;10380;52.102;20.614;2023-02-24T02:02:40;46.93;;;26.60;;
20441;SDS011;10380;52.102;20.614;2023-02-24T02:05:12;48.77;;;27.53;;
20441;SDS011;10380;52.102;20.614;2023-02-24T02:07:40;45.77;;;28.13;;
20441;SDS011;10380;52.102;20.614;2023-02-24T02:10:09;43.50;;;25.33;;
20441;SDS011;10380;52.102;20.614;2023-02-24T02:12:39;48.03;;;27.57;;
20441;SDS011;10380;52.102;20.614;2023-02-24T02:15:14;42.60;;;26.87;;
20441;SDS011;10380;52.102;20.614;2023-02-24T02:34:28;56.53;;;30.97;;
20441;SDS011;10380;52.102;20.614;2023-02-24T02:37:07;55.00;;;30.60;;
20441;SDS011;10380;52.102;20.614;2023-02-24T02:42:29;53.23;;;30.43;;
20441;SDS011;10380;52.102;20.614;2023-02-24T02:47:50;54.40;;;30.80;;
20441;SDS011;10380;52.102;20.614;2023-02-24T02:52:59;53.67;;;30.67;;
20441;SDS011;10380;52.102;20.614;2023-02-24T02:58:07;55.30;;;30.67;;
20441;SDS011;10380;52.102;20.614;2023-02-24T03:00:41;55.20;;;32.10;;
20441;SDS011;10380;52.102;20.614;2023-02-24T03:03:24;56.17;;;31.23;;
20441;SDS011;10380;52.102;20.614;2023-02-24T03:06:36;53.47;;;32.87;;
20441;SDS011;10380;52.102;20.614;2023-02-24T03:11:27;61.93;;;33.13;;
20441;SDS011;10380;52.102;20.614;2023-02-24T03:13:57;55.90;;;31.70;;
20441;SDS011;10380;52.102;20.614;2023-02-24T03:16:27;55.33;;;30.60;;
20441;SDS011;10380;52.102;20.614;2023-02-24T03:18:57;50.90;;;32.43;;
20441;SDS011;10380;52.102;20.614;2023-02-24T03:21:41;53.60;;;32.40;;
20441;SDS011;10380;52.102;20.614;2023-02-24T03:24:11;60.30;;;32.13;;
20441;SDS011;10380;52.102;20.614;2023-02-24T03:26:42;54.07;;;31.13;;
20441;SDS011;10380;52.102;20.614;2023-02-24T03:29:20;53.90;;;33.07;;
20441;SDS011;10380;52.102;20.614;2023-02-24T03:32:11;58.93;;;33.60;;
20441;SDS011;10380;52.102;20.614;2023-02-24T03:34:56;50.63;;;31.47;;
20441;SDS011;10380;52.102;20.614;2023-02-24T03:37:29;59.13;;;32.57;;
20441;SDS011;10380;52.102;20.614;2023-02-24T03:40:00;56.97;;;33.47;;
20441;SDS011;10380;52.102;20.614;2023-02-24T03:42:37;57.60;;;35.47;;
20441;SDS011;10380;52.102;20.614;2023-02-24T03:45:08;57.37;;;33.50;;
20441;SDS011;10380;52.102;20.614;2023-02-24T03:47:35;62.10;;;35.57;;
20441;SDS011;10380;52.102;20.614;2023-02-24T03:50:21;56.97;;;35.57;;
20441;SDS011;10380;52.102;20.614;2023-02-24T03:58:43;58.63;;;33.33;;
20441;SDS011;10380;52.102;20.614;2023-02-24T04:04:18;57.53;;;35.13;;
20441;SDS011;10380;52.102;20.614;2023-02-24T04:06:56;64.03;;;34.40;;
20441;SDS011;10380;52.102;20.614;2023-02-24T04:14:56;64.03;;;35.30;;
20441;SDS011;10380;52.102;20.614;2023-02-24T04:17:29;60.87;;;35.23;;
20441;SDS011;10380;52.102;20.614;2023-02-24T04:20:06;59.70;;;35.53;;
20441;SDS011;10380;52.102;20.614;2023-02-24T04:22:40;61.10;;;33.87;;
20441;SDS011;10380;52.102;20.614;2023-02-24T04:25:09;65.43;;;35.50;;
20441;SDS011;10380;52.102;20.614;2023-02-24T04:27:39;64.83;;;35.23;;
20441;SDS011;10380;52.102;20.614;2023-02-24T04:30:09;70.87;;;38.50;;
20441;SDS011;10380;52.102;20.614;2023-02-24T04:32:37;106.90;;;49.87;;
20441;SDS011;10380;52.102;20.614;2023-02-24T04:35:11;83.53;;;42.70;;
20441;SDS011;10380;52.102;20.614;2023-02-24T04:37:41;79.10;;;45.17;;
20441;SDS011;10380;52.102;20.614;2023-02-24T04:40:12;71.03;;;39.67;;
20441;SDS011;10380;52.102;20.614;2023-02-24T04:42:44;133.27;;;60.00;;
20441;SDS011;10380;52.102;20.614;2023-02-24T04:45:15;106.30;;;50.83;;
20441;SDS011;10380;52.102;20.614;2023-02-24T04:47:48;76.37;;;43.50;;
20441;SDS011;10380;52.102;20.614;2023-02-24T04:50:17;92.43;;;46.57;;
20441;SDS011;10380;52.102;20.614;2023-02-24T04:52:53;85.00;;;45.43;;
20441;SDS011;10380;52.102;20.614;2023-02-24T04:55:23;67.00;;;39.43;;
20441;SDS011;10380;52.102;20.614;2023-02-24T04:57:56;68.40;;;38.47;;
20441;SDS011;10380;52.102;20.614;2023-02-24T05:00:30;68.70;;;38.93;;
20441;SDS011;10380;52.102;20.614;2023-02-24T05:03:04;69.33;;;38.73;;
20441;SDS011;10380;52.102;20.614;2023-02-24T05:05:33;62.10;;;36.40;;
20441;SDS011;10380;52.102;20.614;2023-02-24T05:08:07;64.77;;;38.23;;
20441;SDS011;10380;52.102;20.614;2023-02-24T05:10:41;65.63;;;38.97;;
20441;SDS011;10380;52.102;20.614;2023-02-24T05:13:16;61.30;;;38.57;;
20441;SDS011;10380;52.102;20.614;2023-02-24T05:15:54;78.93;;;42.73;;
20441;SDS011;10380;52.102;20.614;2023-02-24T05:18:23;71.83;;;42.67;;
20441;SDS011;10380;52.102;20.614;2023-02-24T05:20:52;70.47;;;42.80;;
20441;SDS011;10380;52.102;20.614;2023-02-24T05:23:40;72.17;;;42.30;;
20441;SDS011;10380;52.102;20.614;2023-02-24T05:26:12;91.17;;;49.13;;
20441;SDS011;10380;52.102;20.614;2023-02-24T05:28:43;74.33;;;41.87;;
20441;SDS011;10380;52.102;20.614;2023-02-24T05:31:15;81.00;;;46.80;;
20441;SDS011;10380;52.102;20.614;2023-02-24T05:33:47;71.27;;;41.07;;
20441;SDS011;10380;52.102;20.614;2023-02-24T05:36:16;73.13;;;41.63;;
20441;SDS011;10380;52.102;20.614;2023-02-24T05:38:48;64.90;;;38.37;;
20441;SDS011;10380;52.102;20.614;2023-02-24T05:41:23;64.60;;;38.53;;
20441;SDS011;10380;52.102;20.614;2023-02-24T05:43:58;60.00;;;37.23;;
20441;SDS011;10380;52.102;20.614;2023-02-24T05:46:28;65.93;;;37.13;;
20441;SDS011;10380;52.102;20.614;2023-02-24T05:48:59;63.73;;;38.00;;
20441;SDS011;10380;52.102;20.614;2023-02-24T05:51:30;61.40;;;36.43;;
20441;SDS011;10380;52.102;20.614;2023-02-24T05:54:02;60.70;;;35.57;;
20441;SDS011;10380;52.102;20.614;2023-02-24T05:56:35;56.60;;;34.20;;
20441;SDS011;10380;52.102;20.614;2023-02-24T05:59:05;58.03;;;34.00;;
20441;SDS011;10380;52.102;20.614;2023-02-24T06:01:38;55.30;;;32.70;;
20441;SDS011;10380;52.102;20.614;2023-02-24T06:04:07;55.03;;;32.80;;
20441;SDS011;10380;52.102;20.614;2023-02-24T06:06:36;55.40;;;32.73;;
20441;SDS011;10380;52.102;20.614;2023-02-24T06:09:09;54.27;;;32.57;;
20441;SDS011;10380;52.102;20.614;2023-02-24T06:11:39;50.60;;;32.67;;
20441;SDS011;10380;52.102;20.614;2023-02-24T06:14:08;57.17;;;35.47;;
20441;SDS011;10380;52.102;20.614;2023-02-24T06:16:37;52.10;;;32.27;;
20441;SDS011;10380;52.102;20.614;2023-02-24T06:19:08;48.70;;;30.97;;
20441;SDS011;10380;52.102;20.614;2023-02-24T06:21:38;60.37;;;32.67;;
20441;SDS011;10380;52.102;20.614;2023-02-24T06:24:11;49.03;;;29.83;;
20441;SDS011;10380;52.102;20.614;2023-02-24T06:26:40;57.33;;;33.87;;
20441;SDS011;10380;52.102;20.614;2023-02-24T06:29:11;58.67;;;33.90;;
20441;SDS011;10380;52.102;20.614;2023-02-24T06:31:40;58.93;;;33.50;;
20441;SDS011;10380;52.102;20.614;2023-02-24T06:34:09;56.27;;;32.70;;
20441;SDS011;10380;52.102;20.614;2023-02-24T06:36:38;59.07;;;31.97;;
20441;SDS011;10380;52.102;20.614;2023-02-24T06:39:07;52.07;;;32.37;;
20441;SDS011;10380;52.102;20.614;2023-02-24T06:41:35;54.27;;;31.90;;
20441;SDS011;10380;52.102;20.614;2023-02-24T06:44:03;53.30;;;31.90;;
20441;SDS011;10380;52.102;20.614;2023-02-24T06:46:30;55.10;;;31.97;;
20441;SDS011;10380;52.102;20.614;2023-02-24T06:48:57;51.63;;;31.20;;
20441;SDS011;10380;52.102;20.614;2023-02-24T06:51:25;55.73;;;32.70;;
20441;SDS011;10380;52.102;20.614;2023-02-24T06:53:56;51.73;;;32.73;;
20441;SDS011;10380;52.102;20.614;2023-02-24T06:56:25;58.50;;;33.30;;
20441;SDS011;10380;52.102;20.614;2023-02-24T06:58:54;50.07;;;30.73;;
20441;SDS011;10380;52.102;20.614;2023-02-24T07:01:23;55.47;;;32.40;;
20441;SDS011;10380;52.102;20.614;2023-02-24T07:03:52;56.47;;;32.83;;
20441;SDS011;10380;52.102;20.614;2023-02-24T07:06:34;55.20;;;32.40;;
20441;SDS011;10380;52.102;20.614;2023-02-24T07:09:04;54.07;;;32.77;;
20441;SDS011;10380;52.102;20.614;2023-02-24T07:11:40;55.93;;;33.80;;
20441;SDS011;10380;52.102;20.614;2023-02-24T07:14:18;54.80;;;31.70;;
20441;SDS011;10380;52.102;20.614;2023-02-24T07:16:46;57.00;;;31.77;;
20441;SDS011;10380;52.102;20.614;2023-02-24T07:19:21;54.33;;;32.87;;
20441;SDS011;10380;52.102;20.614;2023-02-24T07:21:50;53.23;;;32.30;;
20441;SDS011;10380;52.102;20.614;2023-02-24T07:24:26;56.80;;;32.53;;
20441;SDS011;10380;52.102;20.614;2023-02-24T07:27:06;56.73;;;32.73;;
20441;SDS011;10380;52.102;20.614;2023-02-24T07:29:37;57.80;;;32.97;;
20441;SDS011;10380;52.102;20.614;2023-02-24T07:32:05;59.47;;;33.60;;
20441;SDS011;10380;52.102;20.614;2023-02-24T07:34:34;53.40;;;29.63;;
20441;SDS011;10380;52.102;20.614;2023-02-24T07:37:06;49.70;;;29.47;;
20441;SDS011;10380;52.102;20.614;2023-02-24T07:39:34;48.07;;;30.33;;
20441;SDS011;10380;52.102;20.614;2023-02-24T07:42:02;52.03;;;29.77;;
20441;SDS011;10380;52.102;20.614;2023-02-24T07:44:30;50.40;;;30.53;;
20441;SDS011;10380;52.102;20.614;2023-02-24T07:46:58;49.03;;;29.13;;
20441;SDS011;10380;52.102;20.614;2023-02-24T07:49:26;49.80;;;29.87;;
20441;SDS011;10380;52.102;20.614;2023-02-24T07:51:55;50.60;;;28.07;;
20441;SDS011;10380;52.102;20.614;2023-02-24T07:54:24;47.27;;;30.03;;
20441;SDS011;10380;52.102;20.614;2023-02-24T07:56:56;48.90;;;28.07;;
20441;SDS011;10380;52.102;20.614;2023-02-24T07:59:26;50.23;;;30.03;;
20441;SDS011;10380;52.102;20.614;2023-02-24T08:01:55;44.93;;;29.57;;
20441;SDS011;10380;52.102;20.614;2023-02-24T08:04:24;41.53;;;26.13;;
20441;SDS011;10380;52.102;20.614;2023-02-24T08:06:56;41.43;;;25.43;;
20441;SDS011;10380;52.102;20.614;2023-02-24T08:09:29;40.80;;;27.30;;
20441;SDS011;10380;52.102;20.614;2023-02-24T08:12:20;42.23;;;26.03;;
20441;SDS011;10380;52.102;20.614;2023-02-24T08:14:51;41.77;;;25.73;;
20441;SDS011;10380;52.102;20.614;2023-02-24T08:17:19;38.33;;;26.00;;
20441;SDS011;10380;52.102;20.614;2023-02-24T08:19:50;43.47;;;27.03;;
20441;SDS011;10380;52.102;20.614;2023-02-24T08:22:37;43.17;;;26.07;;
20441;SDS011;10380;52.102;20.614;2023-02-24T08:25:09;42.60;;;26.87;;
20441;SDS011;10380;52.102;20.614;2023-02-24T08:27:44;42.17;;;26.30;;
20441;SDS011;10380;52.102;20.614;2023-02-24T08:30:33;39.43;;;25.43;;
20441;SDS011;10380;52.102;20.614;2023-02-24T08:33:07;42.33;;;25.37;;
20441;SDS011;10380;52.102;20.614;2023-02-24T08:35:37;38.83;;;25.20;;
20441;SDS011;10380;52.102;20.614;2023-02-24T08:38:11;36.80;;;24.20;;
20441;SDS011;10380;52.102;20.614;2023-02-24T08:40:50;43.43;;;26.87;;
20441;SDS011;10380;52.102;20.614;2023-02-24T08:43:21;39.10;;;25.70;;
20441;SDS011;10380;52.102;20.614;2023-02-24T08:48:24;59.17;;;31.23;;
20441;SDS011;10380;52.102;20.614;2023-02-24T08:51:16;52.00;;;30.33;;
20441;SDS011;10380;52.102;20.614;2023-02-24T08:53:52;67.67;;;34.17;;
20441;SDS011;10380;52.102;20.614;2023-02-24T08:56:22;66.60;;;35.57;;
20441;SDS011;10380;52.102;20.614;2023-02-24T08:58:56;53.77;;;30.80;;
20441;SDS011;10380;52.102;20.614;2023-02-24T09:01:32;48.67;;;27.80;;
20441;SDS011;10380;52.102;20.614;2023-02-24T09:04:08;44.33;;;26.03;;
20441;SDS011;10380;52.102;20.614;2023-02-24T09:06:41;40.17;;;25.90;;
20441;SDS011;10380;52.102;20.614;2023-02-24T09:09:12;43.33;;;27.07;;
20441;SDS011;10380;52.102;20.614;2023-02-24T09:11:49;45.13;;;26.17;;
20441;SDS011;10380;52.102;20.614;2023-02-24T09:14:28;47.03;;;27.93;;
20441;SDS011;10380;52.102;20.614;2023-02-24T09:17:06;52.17;;;29.37;;
20441;SDS011;10380;52.102;20.614;2023-02-24T09:19:40;51.27;;;29.73;;
20441;SDS011;10380;52.102;20.614;2023-02-24T09:22:22;49.40;;;28.23;;
20441;SDS011;10380;52.102;20.614;2023-02-24T09:25:04;44.90;;;25.83;;
20441;SDS011;10380;52.102;20.614;2023-02-24T09:28:13;40.97;;;23.77;;
20441;SDS011;10380;52.102;20.614;2023-02-24T09:30:46;44.33;;;26.60;;
20441;SDS011;10380;52.102;20.614;2023-02-24T09:36:03;42.70;;;28.77;;
20441;SDS011;10380;52.102;20.614;2023-02-24T09:38:37;44.70;;;28.80;;
20441;SDS011;10380;52.102;20.614;2023-02-24T09:41:29;41.50;;;27.07;;
20441;SDS011;10380;52.102;20.614;2023-02-24T09:44:27;44.97;;;27.80;;
20441;SDS011;10380;52.102;20.614;2023-02-24T09:49:59;39.67;;;25.20;;
20441;SDS011;10380;52.102;20.614;2023-02-24T09:52:39;33.53;;;19.70;;
20441;SDS011;10380;52.102;20.614;2023-02-24T09:55:17;36.67;;;22.33;;
20441;SDS011;10380;52.102;20.614;2023-02-24T09:58:05;36.73;;;21.67;;
20441;SDS011;10380;52.102;20.614;2023-02-24T10:06:46;33.83;;;20.60;;
20441;SDS011;10380;52.102;20.614;2023-02-24T10:09:27;37.77;;;23.07;;
20441;SDS011;10380;52.102;20.614;2023-02-24T10:12:07;33.23;;;20.73;;
20441;SDS011;10380;52.102;20.614;2023-02-24T10:15:01;28.80;;;17.93;;
20441;SDS011;10380;52.102;20.614;2023-02-24T10:21:02;27.03;;;17.03;;
20441;SDS011;10380;52.102;20.614;2023-02-24T10:26:31;25.50;;;16.40;;
20441;SDS011;10380;52.102;20.614;2023-02-24T10:32:20;14.17;;;10.37;;
20441;SDS011;10380;52.102;20.614;2023-02-24T10:35:00;18.27;;;11.33;;
20441;SDS011;10380;52.102;20.614;2023-02-24T10:37:27;15.33;;;9.77;;
20441;SDS011;10380;52.102;20.614;2023-02-24T10:39:56;15.93;;;8.27;;
20441;SDS011;10380;52.102;20.614;2023-02-24T10:42:27;15.07;;;8.57;;
20441;SDS011;10380;52.102;20.614;2023-02-24T10:45:09;14.60;;;8.83;;
20441;SDS011;10380;52.102;20.614;2023-02-24T10:47:51;12.07;;;7.23;;
20441;SDS011;10380;52.102;20.614;2023-02-24T10:50:27;11.47;;;7.53;;
20441;SDS011;10380;52.102;20.614;2023-02-24T10:53:25;9.67;;;6.97;;
20441;SDS011;10380;52.102;20.614;2023-02-24T10:56:12;10.03;;;7.03;;
20441;SDS011;10380;52.102;20.614;2023-02-24T10:58:41;10.13;;;6.77;;
20441;SDS011;10380;52.102;20.614;2023-02-24T11:01:35;11.47;;;6.40;;
20441;SDS011;10380;52.102;20.614;2023-02-24T11:04:32;11.53;;;7.83;;
20441;SDS011;10380;52.102;20.614;2023-02-24T11:07:30;12.87;;;7.63;;
20441;SDS011;10380;52.102;20.614;2023-02-24T11:10:13;14.30;;;7.87;;
20441;SDS011;10380;52.102;20.614;2023-02-24T11:12:54;14.83;;;8.80;;
20441;SDS011;10380;52.102;20.614;2023-02-24T11:15:51;13.97;;;8.47;;
20441;SDS011;10380;52.102;20.614;2023-02-24T11:18:38;14.47;;;9.53;;
20441;SDS011;10380;52.102;20.614;2023-02-24T11:21:11;19.13;;;9.93;;
20441;SDS011;10380;52.102;20.614;2023-02-24T11:23:43;15.40;;;11.10;;
20441;SDS011;10380;52.102;20.614;2023-02-24T11:26:20;15.47;;;10.83;;
20441;SDS011;10380;52.102;20.614;2023-02-24T11:28:54;20.13;;;12.00;;
20441;SDS011;10380;52.102;20.614;2023-02-24T11:37:47;21.10;;;12.57;;
20441;SDS011;10380;52.102;20.614;2023-02-24T11:40:45;21.87;;;12.20;;
20441;SDS011;10380;52.102;20.614;2023-02-24T11:43:19;18.03;;;10.50;;
20441;SDS011;10380;52.102;20.614;2023-02-24T11:46:03;18.53;;;9.63;;
20441;SDS011;10380;52.102;20.614;2023-02-24T11:48:50;19.90;;;10.77;;
20441;SDS011;10380;52.102;20.614;2023-02-24T11:51:29;18.73;;;10.23;;
20441;SDS011;10380;52.102;20.614;2023-02-24T11:54:03;15.70;;;8.70;;
20441;SDS011;10380;52.102;20.614;2023-02-24T11:56:40;15.10;;;9.33;;
20441;SDS011;10380;52.102;20.614;2023-02-24T11:59:17;17.23;;;8.70;;
20441;SDS011;10380;52.102;20.614;2023-02-24T12:07:18;15.23;;;8.50;;
20441;SDS011;10380;52.102;20.614;2023-02-24T12:09:59;16.37;;;8.67;;
20441;SDS011;10380;52.102;20.614;2023-02-24T12:15:37;18.10;;;10.40;;
20441;SDS011;10380;52.102;20.614;2023-02-24T12:18:25;17.13;;;9.10;;
20441;SDS011;10380;52.102;20.614;2023-02-24T12:21:08;14.10;;;8.33;;
20441;SDS011;10380;52.102;20.614;2023-02-24T12:23:41;13.93;;;8.10;;
20441;SDS011;10380;52.102;20.614;2023-02-24T12:43:00;14.73;;;8.73;;
20441;SDS011;10380;52.102;20.614;2023-02-24T12:50:55;21.47;;;11.53;;
20441;SDS011;10380;52.102;20.614;2023-02-24T12:53:43;17.47;;;9.73;;
20441;SDS011;10380;52.102;20.614;2023-02-24T12:59:44;19.30;;;11.23;;
20441;SDS011;10380;52.102;20.614;2023-02-24T13:05:11;21.77;;;13.33;;
20441;SDS011;10380;52.102;20.614;2023-02-24T13:10:42;17.00;;;10.70;;
20441;SDS011;10380;52.102;20.614;2023-02-24T13:15:56;24.60;;;12.83;;
20441;SDS011;10380;52.102;20.614;2023-02-24T13:18:32;20.57;;;12.97;;
20441;SDS011;10380;52.102;20.614;2023-02-24T13:23:30;23.07;;;14.10;;
20441;SDS011;10380;52.102;20.614;2023-02-24T13:25:57;31.93;;;18.47;;
20441;SDS011;10380;52.102;20.614;2023-02-24T13:30:57;22.50;;;13.20;;
20441;SDS011;10380;52.102;20.614;2023-02-24T13:33:36;27.97;;;14.80;;
20441;SDS011;10380;52.102;20.614;2023-02-24T13:38:39;25.70;;;14.50;;
20441;SDS011;10380;52.102;20.614;2023-02-24T13:43:55;19.17;;;13.37;;
20441;SDS011;10380;52.102;20.614;2023-02-24T13:46:28;21.27;;;14.17;;
20441;SDS011;10380;52.102;20.614;2023-02-24T13:57:43;22.37;;;13.77;;
20441;SDS011;10380;52.102;20.614;2023-02-24T14:00:32;23.03;;;13.50;;
20441;SDS011;10380;52.102;20.614;2023-02-24T14:03:10;19.73;;;12.87;;
20441;SDS011;10380;52.102;20.614;2023-02-24T14:05:43;22.87;;;14.20;;
20441;SDS011;10380;52.102;20.614;2023-02-24T14:08:20;22.07;;;12.57;;
20441;SDS011;10380;52.102;20.614;2023-02-24T14:10:57;17.83;;;11.83;;
20441;SDS011;10380;52.102;20.614;2023-02-24T14:13:29;14.37;;;10.80;;
20441;SDS011;10380;52.102;20.614;2023-02-24T14:16:00;18.60;;;12.13;;
20441;SDS011;10380;52.102;20.614;2023-02-24T14:18:31;16.30;;;11.23;;
20441;SDS011;10380;52.102;20.614;2023-02-24T14:20:58;16.57;;;10.60;;
20441;SDS011;10380;52.102;20.614;2023-02-24T14:23:26;17.13;;;11.67;;
20441;SDS011;10380;52.102;20.614;2023-02-24T14:25:59;21.70;;;13.20;;
20441;SDS011;10380;52.102;20.614;2023-02-24T14:28:32;20.50;;;13.97;;
20441;SDS011;10380;52.102;20.614;2023-02-24T14:31:02;20.27;;;14.83;;
20441;SDS011;10380;52.102;20.614;2023-02-24T14:33:39;28.77;;;17.87;;
20441;SDS011;10380;52.102;20.614;2023-02-24T14:39:11;23.33;;;16.60;;
20441;SDS011;10380;52.102;20.614;2023-02-24T14:41:43;22.47;;;14.23;;
20441;SDS011;10380;52.102;20.614;2023-02-24T14:44:27;20.80;;;13.70;;
20441;SDS011;10380;52.102;20.614;2023-02-24T14:46:55;23.53;;;13.93;;
20441;SDS011;10380;52.102;20.614;2023-02-24T14:49:25;21.50;;;13.27;;
20441;SDS011;10380;52.102;20.614;2023-02-24T14:51:58;15.77;;;12.17;;
20441;SDS011;10380;52.102;20.614;2023-02-24T14:54:34;21.27;;;13.93;;
20441;SDS011;10380;52.102;20.614;2023-02-24T14:57:10;17.80;;;11.80;;
20441;SDS011;10380;52.102;20.614;2023-02-24T14:59:41;18.37;;;11.57;;
20441;SDS011;10380;52.102;20.614;2023-02-24T15:02:13;17.17;;;10.63;;
20441;SDS011;10380;52.102;20.614;2023-02-24T15:04:45;18.53;;;11.53;;
20441;SDS011;10380;52.102;20.614;2023-02-24T15:09:47;16.00;;;11.87;;
20441;SDS011;10380;52.102;20.614;2023-02-24T15:14:49;16.43;;;11.57;;
20441;SDS011;10380;52.102;20.614;2023-02-24T15:17:19;17.10;;;12.30;;
20441;SDS011;10380;52.102;20.614;2023-02-24T15:19:48;18.47;;;12.20;;
20441;SDS011;10380;52.102;20.614;2023-02-24T15:24:47;18.67;;;14.43;;
20441;SDS011;10380;52.102;20.614;2023-02-24T15:29:42;18.00;;;13.13;;
20441;SDS011;10380;52.102;20.614;2023-02-24T15:32:14;22.37;;;14.43;;
20441;SDS011;10380;52.102;20.614;2023-02-24T15:34:46;28.43;;;18.00;;
20441;SDS011;10380;52.102;20.614;2023-02-24T15:37:14;31.27;;;20.80;;
20441;SDS011;10380;52.102;20.614;2023-02-24T15:39:50;19.60;;;13.50;;
20441;SDS011;10380;52.102;20.614;2023-02-24T15:42:25;19.37;;;12.13;;
20441;SDS011;10380;52.102;20.614;2023-02-24T15:44:58;17.33;;;12.43;;
20441;SDS011;10380;52.102;20.614;2023-02-24T15:47:28;20.60;;;14.47;;
20441;SDS011;10380;52.102;20.614;2023-02-24T15:50:10;22.73;;;14.90;;
20441;SDS011;10380;52.102;20.614;2023-02-24T15:52:38;10.77;;;7.37;;
20441;SDS011;10380;52.102;20.614;2023-02-24T15:55:09;14.57;;;10.60;;
20441;SDS011;10380;52.102;20.614;2023-02-24T15:57:36;12.77;;;9.20;;
20441;SDS011;10380;52.102;20.614;2023-02-24T16:00:04;14.67;;;10.47;;
20441;SDS011;10380;52.102;20.614;2023-02-24T16:02:39;16.77;;;10.43;;
20441;SDS011;10380;52.102;20.614;2023-02-24T16:05:08;17.07;;;10.23;;
20441;SDS011;10380;52.102;20.614;2023-02-24T16:07:38;21.10;;;11.07;;
20441;SDS011;10380;52.102;20.614;2023-02-24T16:13:05;19.83;;;10.57;;
20441;SDS011;10380;52.102;20.614;2023-02-24T16:15:33;18.03;;;11.80;;
20441;SDS011;10380;52.102;20.614;2023-02-24T16:18:03;16.93;;;10.70;;
20441;SDS011;10380;52.102;20.614;2023-02-24T16:20:39;11.80;;;7.00;;
20441;SDS011;10380;52.102;20.614;2023-02-24T16:23:06;18.00;;;11.27;;
20441;SDS011;10380;52.102;20.614;2023-02-24T16:25:39;19.23;;;10.80;;
20441;SDS011;10380;52.102;20.614;2023-02-24T16:28:18;19.00;;;10.83;;
20441;SDS011;10380;52.102;20.614;2023-02-24T16:30:46;22.00;;;12.17;;
20441;SDS011;10380;52.102;20.614;2023-02-24T16:33:15;19.97;;;11.77;;
20441;SDS011;10380;52.102;20.614;2023-02-24T16:35:43;21.27;;;10.90;;
20441;SDS011;10380;52.102;20.614;2023-02-24T16:38:11;14.93;;;9.90;;
20441;SDS011;10380;52.102;20.614;2023-02-24T16:40:41;23.20;;;10.33;;
20441;SDS011;10380;52.102;20.614;2023-02-24T16:43:10;14.63;;;9.90;;
20441;SDS011;10380;52.102;20.614;2023-02-24T16:45:38;20.37;;;9.13;;
20441;SDS011;10380;52.102;20.614;2023-02-24T16:48:08;19.80;;;11.03;;
20441;SDS011;10380;52.102;20.614;2023-02-24T16:50:45;28.10;;;14.77;;
20441;SDS011;10380;52.102;20.614;2023-02-24T16:53:16;17.50;;;10.60;;
20441;SDS011;10380;52.102;20.614;2023-02-24T16:55:45;17.67;;;12.40;;
20441;SDS011;10380;52.102;20.614;2023-02-24T16:58:12;16.17;;;9.53;;
20441;SDS011;10380;52.102;20.614;2023-02-24T17:00:40;18.63;;;9.83;;
20441;SDS011;10380;52.102;20.614;2023-02-24T17:03:22;16.77;;;9.40;;
20441;SDS011;10380;52.102;20.614;2023-02-24T17:05:51;17.57;;;9.50;;
20441;SDS011;10380;52.102;20.614;2023-02-24T17:08:19;21.77;;;11.87;;
20441;SDS011;10380;52.102;20.614;2023-02-24T17:10:46;20.83;;;11.37;;
20441;SDS011;10380;52.102;20.614;2023-02-24T17:13:15;24.60;;;11.90;;
20441;SDS011;10380;52.102;20.614;2023-02-24T17:15:43;27.70;;;14.83;;
20441;SDS011;10380;52.102;20.614;2023-02-24T17:18:10;25.00;;;13.20;;
20441;SDS011;10380;52.102;20.614;2023-02-24T17:20:39;25.83;;;13.43;;
20441;SDS011;10380;52.102;20.614;2023-02-24T17:23:06;26.37;;;14.07;;